Acadia National Park, ME

7:41 AM EST on March 03, 2015 (GMT -0500)
RAWS MCFARLAND HILL ME US | Change Station
CLOSE
Current Station
Personal Weather Station
Location: Hulls Cove, ME
Elevation: 423 ft
Nearby Weather Stations
Active Advisory: Winter Weather Advisory

Elev 423 ft 44.38 °N, 68.26 °W | Updated 43 minutes ago

Clear
Clear
12 °F
Feels Like 12 °F
N
0
Wind Variable Wind from North
Gusts 0.0 mph

Today
High -- | Low -- °F
--% Chance of Precip.
Yesterday
High -- | Low -- °F
Precip. -- in
6:07 AM 5:23 PM
Waxing Gibbous, 96% visible
Pressure 30.32 in
Visibility 10.0 miles
Clouds Clear
Windchill 12 °F
Dew Point -6 °F
Humidity 43%
Rainfall 0.01 in
Snow Depth Not available.
UV 1 out of 12
Pollen .30 out of 12
Air Quality Not available.
Flu Activity Not available.
METAR KBHB 031235Z 27006KT 10SM CLR M10/M20 A3032 RMK AO1

More Conditions Fewer Conditions

Pressure 30.32 in
Visibility 10.0 miles
Clouds Clear
Windchill 12 °F
Dew Point -6 °F
Humidity 43%
Rainfall 0.01 in
Snow Depth Not available.
UV 1 out of 12
Pollen .30 out of 12
Air Quality Not available.
Flu Activity Not available.
METAR KBHB 031235Z 27006KT 10SM CLR M10/M20 A3032 RMK AO1

More Conditions Fewer Conditions

10-Day Weather Forecast

Almanac

Astronomy

Mar. 03, 2015 Rise Set
Actual Time
Civil Twilight
Nautical Twilight
Astronomical Twilight
Moon
Length of Visible Light
Length of Day
Tomorrow will be .
, % of the Moon is Illuminated

Today's Extremes

State Highs State Lows

Community

WunderPhotos

Upload Photos

1,802,096 photos uploaded!

WunderBlogs® & News

Nearby

Air Quality

  Air Quality AQ Index Pollutant
Not available.

Snow Depth

Station Depth Elevation

Earthquake Activity

City Distance Mag. Time & Date
Minimum magnitude displayed is 2.5.

Coastal Water Temperatures

Place Temperature

Nearby Weather Stations

Winter Weather Advisory
Statement as of 5:49 AM EST on March 03, 2015

... Winter Weather Advisory remains in effect from 7 PM this
evening to 1 PM EST Wednesday...

* locations... Penobscot... Hancock and Washington counties.

* Hazard types... snow

* snow accumulations... 4 to 6 inches.

* Timing... overnight into early Tuesday morning.

* Impacts... snow will lead to snow covered roads which could
lead to some travel difficulties.

* Winds... south 10 to 20 mph with gusts up to 35 mph.

* Temperatures... in the upper 20s.

* Visibilities... one half of a mile at times.

Precautionary/preparedness actions...

A Winter Weather Advisory for snow means that periods of snow
will cause primarily travel difficulties. Be prepared for snow
covered roads and limited visibilities... and use caution while
driving.